Time;durP1;ratioP1;P1;durP2;ratioP2;P2;SDS_P1;SDS_P2;PMS_P1;PMS_P2;Temp;Humidity;BMP_temperature;BMP_pressure;BME280_temperature;BME280_humidity;BME280_pressure;Samples;Min_cycle;Max_cycle;Signal;HPM_P1;HPM_P2
2023/08/26 00:02:26;;;;;;;318.13;292.50;;;;;;;;;;5003552;28;20034;-58
2023/08/26 00:04:52;;;;;;;;;;;;;;;;;;5012541;28;20113;-59
2023/08/26 00:07:17;;;;;;;253.45;234.55;;;;;;;;;;5015536;28;20024;-59
2023/08/26 00:09:42;;;;;;;266.13;247.77;;;;;;;;;;5014059;28;20059;-59
2023/08/26 00:12:07;;;;;;;286.53;264.47;;;;;;;;;;5009897;28;20037;-58
2023/08/26 00:14:32;;;;;;;337.87;311.13;;;;;;;;;;5011280;28;20025;-58
2023/08/26 00:16:57;;;;;;;324.10;298.30;;;;;;;;;;5009526;28;20033;-59
2023/08/26 00:19:23;;;;;;;347.53;319.33;;;;;;;;;;5009944;28;20481;-59
2023/08/26 00:21:48;;;;;;;284.37;262.17;;;;;;;;;;5009289;28;20033;-58
2023/08/26 00:24:14;;;;;;;346.65;317.92;;;;;;;;;;5010749;28;20104;-59
2023/08/26 00:26:39;;;;;;;307.20;282.17;;;;;;;;;;5013895;28;20084;-58
2023/08/26 00:29:04;;;;;;;345.90;314.77;;;;;;;;;;5010298;28;20021;-58
2023/08/26 00:31:29;;;;;;;257.50;237.33;;;;;;;;;;5010554;28;20041;-58
2023/08/26 00:33:54;;;;;;;339.93;312.00;;;;;;;;;;5008882;28;20022;-58
2023/08/26 00:36:19;;;;;;;285.97;263.37;;;;;;;;;;5007423;28;20378;-59
2023/08/26 00:38:45;;;;;;;304.13;281.35;;;;;;;;;;5015616;28;20029;-58
2023/08/26 00:41:10;;;;;;;370.60;340.23;;;;;;;;;;5016448;28;20017;-59
2023/08/26 00:43:37;;;;;;;317.67;293.50;;;;;;;;;;5009040;28;20527;-59
2023/08/26 00:46:03;;;;;;;313.10;288.73;;;;;;;;;;5010387;28;20018;-59
2023/08/26 00:48:28;;;;;;;278.10;256.95;;;;;;;;;;5007453;28;20029;-58
2023/08/26 00:50:54;;;;;;;310.23;285.23;;;;;;;;;;5010519;28;20036;-59
2023/08/26 00:53:20;;;;;;;341.17;313.52;;;;;;;;;;5016600;28;20052;-59
2023/08/26 00:55:46;;;;;;;276.23;255.30;;;;;;;;;;5010527;28;20022;-58
2023/08/26 00:58:11;;;;;;;295.90;273.98;;;;;;;;;;5009346;28;20496;-59
2023/08/26 01:00:36;;;;;;;274.90;251.60;;;;;;;;;;5010735;28;20098;-59
2023/08/26 01:03:02;;;;;;;316.75;290.85;;;;;;;;;;5010162;28;20019;-58
2023/08/26 01:05:28;;;;;;;266.48;244.93;;;;;;;;;;5010629;28;20090;-58
2023/08/26 01:07:53;;;;;;;288.50;265.13;;;;;;;;;;5007262;28;20025;-59
2023/08/26 01:10:20;;;;;;;258.80;239.32;;;;;;;;;;5007613;28;20032;-57
2023/08/26 01:12:54;;;;;;;314.08;289.27;;;;;;;;;;5011923;28;20502;-59
2023/08/26 01:15:20;;;;;;;260.35;240.00;;;;;;;;;;5008077;28;20053;-58
2023/08/26 01:17:45;;;;;;;354.20;326.85;;;;;;;;;;5007869;28;20510;-57
2023/08/26 01:20:11;;;;;;;276.37;255.27;;;;;;;;;;5011019;28;20463;-59
2023/08/26 01:22:37;;;;;;;205.88;190.70;;;;;;;;;;5010859;28;20440;-58
2023/08/26 01:25:02;;;;;;;239.03;220.37;;;;;;;;;;5013485;28;20101;-58
2023/08/26 01:27:27;;;;;;;262.67;243.55;;;;;;;;;;5006913;28;20060;-59
2023/08/26 01:29:53;;;;;;;306.03;282.10;;;;;;;;;;5009384;28;20112;-58
2023/08/26 01:32:27;;;;;;;269.33;248.48;;;;;;;;;;5015910;28;20033;-58
2023/08/26 01:34:55;;;;;;;227.35;210.07;;;;;;;;;;5010741;28;20014;-58
2023/08/26 01:37:20;;;;;;;271.15;249.23;;;;;;;;;;5007063;28;20022;-58
2023/08/26 01:39:46;;;;;;;293.35;272.63;;;;;;;;;;5015816;28;20029;-58
2023/08/26 01:42:12;;;;;;;361.20;331.02;;;;;;;;;;5010194;28;20033;-59
2023/08/26 01:44:39;;;;;;;350.60;322.55;;;;;;;;;;5009259;28;20025;-58
2023/08/26 01:47:04;;;;;;;348.70;320.90;;;;;;;;;;5008915;28;20029;-58
2023/08/26 01:49:29;;;;;;;371.23;338.77;;;;;;;;;;5017153;28;20013;-58
2023/08/26 01:51:54;;;;;;;285.25;262.92;;;;;;;;;;5012719;28;20525;-60
2023/08/26 01:54:19;;;;;;;211.83;196.33;;;;;;;;;;5012339;28;20021;-59
2023/08/26 01:56:44;;;;;;;227.77;211.03;;;;;;;;;;5019204;28;20021;-59
2023/08/26 01:59:10;;;;;;;300.53;278.63;;;;;;;;;;5022076;28;20148;-58
2023/08/26 02:01:35;;;;;;;329.20;302.57;;;;;;;;;;5011410;28;20072;-59
2023/08/26 02:04:00;;;;;;;357.45;328.77;;;;;;;;;;5014570;28;20018;-58
2023/08/26 02:06:26;;;;;;;341.60;315.53;;;;;;;;;;5017397;28;20032;-58
2023/08/26 02:08:52;;;;;;;293.17;272.65;;;;;;;;;;5014117;28;20535;-59
2023/08/26 02:11:18;;;;;;;352.58;326.00;;;;;;;;;;5013260;28;20038;-59
2023/08/26 02:13:43;;;;;;;314.40;290.97;;;;;;;;;;5022290;28;20045;-58
2023/08/26 02:16:08;;;;;;;304.30;280.87;;;;;;;;;;5015511;28;20044;-59
2023/08/26 02:18:33;;;;;;;322.80;297.52;;;;;;;;;;5010834;28;20022;-60
2023/08/26 02:20:58;;;;;;;290.10;268.27;;;;;;;;;;5013411;28;20033;-58
2023/08/26 02:23:23;;;;;;;272.90;252.27;;;;;;;;;;5011733;28;20469;-58
2023/08/26 02:25:48;;;;;;;406.77;373.88;;;;;;;;;;5013151;28;20014;-58
2023/08/26 02:28:14;;;;;;;323.47;300.20;;;;;;;;;;5016144;28;20029;-59
2023/08/26 02:30:39;;;;;;;306.77;282.00;;;;;;;;;;5013646;28;20112;-58
2023/08/26 02:33:06;;;;;;;346.00;318.53;;;;;;;;;;5012661;28;20029;-59
2023/08/26 02:35:32;;;;;;;318.15;294.00;;;;;;;;;;5010092;28;20018;-59
2023/08/26 02:37:57;;;;;;;336.73;311.92;;;;;;;;;;5016707;28;20362;-59
2023/08/26 02:40:22;;;;;;;309.00;285.60;;;;;;;;;;5013031;28;20026;-59
2023/08/26 02:42:47;;;;;;;344.33;317.73;;;;;;;;;;5013062;28;20033;-59
2023/08/26 02:45:12;;;;;;;343.63;315.77;;;;;;;;;;5011965;28;20021;-59
2023/08/26 02:47:38;;;;;;;395.30;361.60;;;;;;;;;;5012064;28;20397;-59
2023/08/26 02:50:03;;;;;;;364.30;335.42;;;;;;;;;;5011357;28;20030;-59
2023/08/26 02:52:28;;;;;;;339.48;313.42;;;;;;;;;;5010234;28;20038;-59
2023/08/26 02:54:53;;;;;;;358.90;329.13;;;;;;;;;;5012187;28;20049;-60
2023/08/26 02:57:19;;;;;;;351.77;324.13;;;;;;;;;;5011496;28;20407;-59
2023/08/26 02:59:45;;;;;;;394.42;357.63;;;;;;;;;;5003073;28;20049;-61
2023/08/26 03:02:10;;;;;;;330.63;306.60;;;;;;;;;;5011301;28;20088;-59
2023/08/26 03:04:35;;;;;;;317.57;293.37;;;;;;;;;;5012032;28;20056;-60
2023/08/26 03:07:01;;;;;;;337.27;310.63;;;;;;;;;;5010683;28;20084;-59
2023/08/26 03:09:28;;;;;;;365.98;336.13;;;;;;;;;;5011341;28;20065;-59
2023/08/26 03:11:53;;;;;;;405.17;373.58;;;;;;;;;;5012262;28;20444;-59
2023/08/26 03:14:18;;;;;;;283.80;264.48;;;;;;;;;;5012301;28;20385;-59
2023/08/26 03:16:43;;;;;;;393.30;362.57;;;;;;;;;;5010429;28;20021;-59
2023/08/26 03:19:09;;;;;;;321.30;297.10;;;;;;;;;;5011544;28;20037;-59
2023/08/26 03:21:34;;;;;;;349.60;322.80;;;;;;;;;;5009507;28;20025;-59
2023/08/26 03:23:59;;;;;;;345.53;318.07;;;;;;;;;;4997397;28;20023;-59
2023/08/26 03:26:24;;;;;;;351.75;324.52;;;;;;;;;;5003777;28;20037;-59
2023/08/26 03:28:49;;;;;;;363.60;332.33;;;;;;;;;;5004775;28;20025;-60
2023/08/26 03:31:15;;;;;;;355.30;328.10;;;;;;;;;;5006173;28;20025;-59
2023/08/26 03:33:40;;;;;;;349.88;321.25;;;;;;;;;;5018057;28;20503;-58
2023/08/26 03:36:05;;;;;;;345.20;319.20;;;;;;;;;;5014432;28;20056;-59
2023/08/26 03:38:32;;;;;;;336.48;309.55;;;;;;;;;;5011578;28;20037;-59
2023/08/26 03:40:57;;;;;;;328.60;302.90;;;;;;;;;;5000563;28;20029;-59
2023/08/26 03:43:22;;;;;;;342.93;315.37;;;;;;;;;;5010732;28;20014;-59
2023/08/26 03:45:47;;;;;;;284.97;263.67;;;;;;;;;;5016214;28;20025;-58
2023/08/26 03:48:13;;;;;;;390.85;360.23;;;;;;;;;;5014165;28;20376;-59
2023/08/26 03:50:38;;;;;;;347.67;319.30;;;;;;;;;;5011644;28;19998;-59
2023/08/26 03:53:03;;;;;;;348.77;323.23;;;;;;;;;;5009556;28;20109;-60
2023/08/26 03:55:29;;;;;;;347.10;319.63;;;;;;;;;;5010697;28;20448;-59
2023/08/26 03:57:54;;;;;;;340.23;314.40;;;;;;;;;;5006870;28;20037;-60
2023/08/26 04:00:19;;;;;;;346.03;317.30;;;;;;;;;;5011567;28;20021;-59
2023/08/26 04:02:45;;;;;;;306.20;284.37;;;;;;;;;;5012980;28;20393;-59
2023/08/26 04:05:10;;;;;;;346.40;320.73;;;;;;;;;;5011623;28;20022;-59
2023/08/26 04:07:35;;;;;;;327.45;300.35;;;;;;;;;;5010567;28;20056;-58
2023/08/26 04:10:00;;;;;;;331.43;307.17;;;;;;;;;;5010626;28;20493;-59
2023/08/26 04:12:26;;;;;;;334.60;309.57;;;;;;;;;;5008284;28;20040;-59
2023/08/26 04:14:51;;;;;;;329.47;304.77;;;;;;;;;;5010223;28;20049;-59
2023/08/26 04:17:16;;;;;;;324.90;297.40;;;;;;;;;;5008923;28;20049;-59
2023/08/26 04:19:41;;;;;;;323.67;299.27;;;;;;;;;;5011035;28;20018;-58
2023/08/26 04:22:07;;;;;;;348.30;323.07;;;;;;;;;;5011696;28;20021;-59
2023/08/26 04:24:33;;;;;;;358.20;332.08;;;;;;;;;;5010432;28;20018;-58
2023/08/26 04:26:58;;;;;;;423.13;390.23;;;;;;;;;;5008025;28;20382;-58
2023/08/26 04:29:23;;;;;;;371.27;343.03;;;;;;;;;;5003471;28;20052;-58
2023/08/26 04:31:48;;;;;;;384.63;355.73;;;;;;;;;;5003962;28;20022;-58
2023/08/26 04:34:13;;;;;;;473.80;437.57;;;;;;;;;;5015430;28;20025;-59
2023/08/26 04:36:39;;;;;;;424.40;393.40;;;;;;;;;;5009593;28;20018;-59
2023/08/26 04:39:10;;;;;;;405.52;374.70;;;;;;;;;;5010757;28;20021;-58
2023/08/26 04:41:36;;;;;;;;;;;;;;;;;;5015078;28;20018;-59
2023/08/26 04:44:01;;;;;;;372.00;342.92;;;;;;;;;;5007413;28;19909;-59
2023/08/26 04:46:26;;;;;;;430.27;397.70;;;;;;;;;;5003147;28;20022;-59
2023/08/26 04:48:51;;;;;;;414.35;383.17;;;;;;;;;;5007237;28;20530;-59
2023/08/26 04:51:16;;;;;;;443.87;411.37;;;;;;;;;;5008064;28;20036;-59
2023/08/26 04:53:42;;;;;;;473.57;436.97;;;;;;;;;;5008836;28;20617;-59
2023/08/26 04:56:07;;;;;;;440.75;408.23;;;;;;;;;;5001149;28;20385;-60
2023/08/26 04:58:32;;;;;;;420.43;389.10;;;;;;;;;;4995857;28;20038;-59
2023/08/26 05:00:57;;;;;;;415.70;383.20;;;;;;;;;;5009539;28;20025;-59
2023/08/26 05:03:22;;;;;;;417.73;386.27;;;;;;;;;;5010188;28;20026;-59
2023/08/26 05:05:48;;;;;;;550.50;506.20;;;;;;;;;;5008188;28;20523;-60
2023/08/26 05:08:13;;;;;;;395.00;366.20;;;;;;;;;;5003245;28;20120;-59
2023/08/26 05:10:38;;;;;;;542.67;502.90;;;;;;;;;;5012029;28;20049;-59
2023/08/26 05:13:04;;;;;;;438.10;403.33;;;;;;;;;;5014095;28;20026;-59
2023/08/26 05:15:29;;;;;;;493.00;453.55;;;;;;;;;;5008656;28;20018;-59
2023/08/26 05:17:54;;;;;;;411.17;379.17;;;;;;;;;;5004611;28;20026;-60
2023/08/26 05:20:19;;;;;;;482.17;443.33;;;;;;;;;;5003947;28;20418;-59
2023/08/26 05:22:44;;;;;;;436.23;403.27;;;;;;;;;;5013565;28;20105;-59
2023/08/26 05:25:10;;;;;;;488.60;450.13;;;;;;;;;;5011808;28;20397;-59
2023/08/26 05:27:35;;;;;;;507.53;468.27;;;;;;;;;;5015204;28;20381;-59
2023/08/26 05:30:00;;;;;;;417.03;386.43;;;;;;;;;;5005556;28;20065;-60
2023/08/26 05:32:25;;;;;;;458.92;423.95;;;;;;;;;;5016161;28;20033;-59
2023/08/26 05:34:51;;;;;;;401.53;369.87;;;;;;;;;;5013534;28;20026;-59
2023/08/26 05:37:16;;;;;;;418.33;386.63;;;;;;;;;;5008119;28;20041;-59
2023/08/26 05:39:41;;;;;;;415.00;383.77;;;;;;;;;;5013816;28;20101;-59
2023/08/26 05:42:06;;;;;;;358.63;332.20;;;;;;;;;;5018140;28;20396;-59
2023/08/26 05:44:31;;;;;;;435.03;401.57;;;;;;;;;;5020102;28;20021;-59
2023/08/26 05:46:57;;;;;;;550.03;506.90;;;;;;;;;;5015449;28;20151;-59
2023/08/26 05:49:22;;;;;;;409.80;379.10;;;;;;;;;;5016378;28;20030;-60
2023/08/26 05:51:47;;;;;;;358.90;333.03;;;;;;;;;;5021309;28;20018;-59
2023/08/26 05:54:12;;;;;;;479.07;441.93;;;;;;;;;;5024164;28;20018;-58
2023/08/26 05:56:37;;;;;;;410.33;379.27;;;;;;;;;;5014550;28;20063;-59
2023/08/26 05:59:03;;;;;;;438.60;405.83;;;;;;;;;;5014096;28;20029;-59
2023/08/26 06:01:28;;;;;;;419.40;386.83;;;;;;;;;;5013093;28;20030;-59
2023/08/26 06:03:54;;;;;;;401.90;371.48;;;;;;;;;;5014946;28;20100;-59
2023/08/26 06:06:19;;;;;;;445.45;411.95;;;;;;;;;;5016666;28;20053;-59
2023/08/26 06:08:44;;;;;;;521.40;479.30;;;;;;;;;;5018994;28;20072;-59
2023/08/26 06:11:09;;;;;;;466.85;430.83;;;;;;;;;;5018418;28;20541;-59
2023/08/26 06:13:35;;;;;;;518.43;476.10;;;;;;;;;;5015528;28;20030;-59
2023/08/26 06:16:00;;;;;;;436.97;403.50;;;;;;;;;;5019536;28;20033;-59
2023/08/26 06:18:25;;;;;;;531.00;487.23;;;;;;;;;;5017572;28;20599;-59
2023/08/26 06:20:51;;;;;;;545.53;503.02;;;;;;;;;;5016883;28;20029;-59
2023/08/26 06:23:16;;;;;;;493.08;453.02;;;;;;;;;;5010518;28;20102;-59
2023/08/26 06:25:52;;;;;;;447.35;412.73;;;;;;;;;;5017350;28;20014;-59
2023/08/26 06:28:17;;;;;;;399.63;368.80;;;;;;;;;;5012588;28;20029;-60
2023/08/26 06:30:42;;;;;;;491.77;452.30;;;;;;;;;;5019015;28;20021;-59
2023/08/26 06:33:07;;;;;;;461.17;425.20;;;;;;;;;;5014626;28;20017;-59
2023/08/26 06:35:32;;;;;;;539.35;496.38;;;;;;;;;;5014811;28;20030;-60
2023/08/26 06:37:58;;;;;;;421.53;389.70;;;;;;;;;;5018875;28;20115;-58
2023/08/26 06:40:23;;;;;;;413.42;381.70;;;;;;;;;;5017054;28;20029;-59
2023/08/26 06:42:48;;;;;;;563.77;517.50;;;;;;;;;;5016015;28;20157;-59
2023/08/26 06:45:13;;;;;;;481.17;443.33;;;;;;;;;;5014442;28;20026;-60
2023/08/26 06:47:39;;;;;;;623.97;573.40;;;;;;;;;;5009333;28;20111;-58
2023/08/26 06:50:06;;;;;;;551.15;507.25;;;;;;;;;;5017957;28;20160;-58
2023/08/26 06:52:31;;;;;;;523.38;481.58;;;;;;;;;;5012089;28;20026;-59
2023/08/26 06:54:56;;;;;;;554.50;509.40;;;;;;;;;;5013837;28;20553;-58
2023/08/26 06:57:21;;;;;;;444.17;408.58;;;;;;;;;;5003318;28;20030;-61
2023/08/26 06:59:46;;;;;;;524.30;483.13;;;;;;;;;;5008755;28;20549;-59
2023/08/26 07:02:11;;;;;;;566.73;519.20;;;;;;;;;;4999981;28;20022;-59
2023/08/26 07:04:36;;;;;;;597.40;547.70;;;;;;;;;;5002272;28;20025;-58
2023/08/26 07:07:02;;;;;;;380.93;350.93;;;;;;;;;;5002063;28;20038;-60
2023/08/26 07:09:27;;;;;;;347.13;321.08;;;;;;;;;;5009234;28;20026;-59
2023/08/26 07:11:52;;;;;;;471.10;434.80;;;;;;;;;;5010990;28;20120;-59
2023/08/26 07:14:17;;;;;;;399.15;368.65;;;;;;;;;;5001883;28;20029;-60
2023/08/26 07:16:43;;;;;;;460.87;424.43;;;;;;;;;;4997470;28;20057;-61
2023/08/26 07:19:08;;;;;;;488.23;449.77;;;;;;;;;;5001970;28;20035;-59
2023/08/26 07:21:33;;;;;;;411.38;380.38;;;;;;;;;;4994746;28;20025;-58
2023/08/26 07:23:59;;;;;;;478.93;443.60;;;;;;;;;;5010282;28;20025;-58
2023/08/26 07:26:24;;;;;;;476.77;439.73;;;;;;;;;;5012650;28;20022;-59
2023/08/26 07:28:49;;;;;;;411.07;378.90;;;;;;;;;;5006025;28;20030;-58
2023/08/26 07:31:14;;;;;;;556.93;511.60;;;;;;;;;;5009187;28;20021;-59
2023/08/26 07:33:39;;;;;;;458.23;422.90;;;;;;;;;;5003144;28;20018;-60
2023/08/26 07:36:05;;;;;;;536.53;494.40;;;;;;;;;;5007330;28;20026;-59
2023/08/26 07:38:30;;;;;;;425.67;392.73;;;;;;;;;;5011642;28;20040;-59
2023/08/26 07:40:55;;;;;;;500.17;459.97;;;;;;;;;;5004824;28;20071;-60
2023/08/26 07:43:21;;;;;;;604.83;556.57;;;;;;;;;;5023354;28;20512;-62
2023/08/26 07:45:46;;;;;;;537.23;494.97;;;;;;;;;;5009071;28;20030;-59
2023/08/26 07:48:11;;;;;;;449.42;415.73;;;;;;;;;;5002859;28;20060;-59
2023/08/26 07:50:38;;;;;;;513.17;474.35;;;;;;;;;;5006554;28;20025;-59
2023/08/26 07:53:05;;;;;;;469.52;434.25;;;;;;;;;;5013907;28;20022;-59
2023/08/26 07:55:30;;;;;;;437.83;403.42;;;;;;;;;;5011964;28;20399;-61
2023/08/26 07:57:55;;;;;;;419.33;388.63;;;;;;;;;;5008975;28;20033;-59
2023/08/26 08:00:20;;;;;;;426.33;395.90;;;;;;;;;;5006116;28;20034;-59
2023/08/26 08:02:46;;;;;;;368.63;339.70;;;;;;;;;;5009961;28;20051;-61
2023/08/26 08:05:11;;;;;;;452.23;418.50;;;;;;;;;;5000667;28;20025;-59
2023/08/26 08:07:36;;;;;;;372.20;346.57;;;;;;;;;;5012819;28;20478;-60
2023/08/26 08:10:01;;;;;;;450.67;417.30;;;;;;;;;;5009122;28;20026;-59
2023/08/26 08:12:26;;;;;;;357.80;333.63;;;;;;;;;;5001997;28;20026;-60
2023/08/26 08:14:52;;;;;;;340.00;315.73;;;;;;;;;;5008377;28;20163;-59
2023/08/26 08:17:17;;;;;;;509.90;471.97;;;;;;;;;;4994702;28;20037;-61
2023/08/26 08:19:45;;;;;;;351.27;328.07;;;;;;;;;;5001072;28;20026;-61
2023/08/26 08:22:10;;;;;;;460.90;426.70;;;;;;;;;;5001561;28;20090;-60
2023/08/26 08:24:35;;;;;;;415.40;384.77;;;;;;;;;;5001028;28;20414;-59
2023/08/26 08:27:01;;;;;;;341.20;318.90;;;;;;;;;;5005499;28;20725;-61
2023/08/26 08:29:26;;;;;;;348.67;326.93;;;;;;;;;;5001320;28;20080;-61
2023/08/26 08:31:51;;;;;;;409.57;378.80;;;;;;;;;;4999990;28;20543;-62
2023/08/26 08:34:16;;;;;;;354.03;331.10;;;;;;;;;;5000728;28;20076;-59
2023/08/26 08:36:41;;;;;;;366.63;343.95;;;;;;;;;;4999437;28;20030;-59
2023/08/26 08:39:06;;;;;;;439.30;408.40;;;;;;;;;;5008675;28;20049;-60
2023/08/26 08:41:33;;;;;;;373.47;349.53;;;;;;;;;;5000127;28;20500;-60
2023/08/26 08:44:02;;;;;;;360.90;337.88;;;;;;;;;;5000751;28;20076;-60
2023/08/26 08:46:28;;;;;;;367.63;344.25;;;;;;;;;;4999944;28;20031;-60
2023/08/26 08:48:53;;;;;;;505.60;468.17;;;;;;;;;;5009066;28;20040;-60
2023/08/26 08:51:18;;;;;;;352.73;329.60;;;;;;;;;;5005357;28;20030;-60
2023/08/26 08:53:44;;;;;;;;;;;;;;;;;;5009320;28;20071;-60
2023/08/26 08:56:10;;;;;;;397.50;370.63;;;;;;;;;;5010270;28;19949;-59
2023/08/26 08:58:35;;;;;;;406.80;376.05;;;;;;;;;;5011746;28;20033;-59
2023/08/26 09:01:01;;;;;;;419.35;388.02;;;;;;;;;;5012829;28;20565;-60
2023/08/26 09:03:26;;;;;;;394.07;365.80;;;;;;;;;;5008963;28;20026;-60
2023/08/26 09:05:51;;;;;;;406.70;376.37;;;;;;;;;;5007719;28;20041;-59
2023/08/26 09:08:17;;;;;;;399.38;369.48;;;;;;;;;;5009788;28;20036;-60
2023/08/26 09:10:44;;;;;;;418.17;385.60;;;;;;;;;;5005992;28;20046;-59
2023/08/26 09:13:09;;;;;;;400.25;369.75;;;;;;;;;;5006243;28;20036;-59
2023/08/26 09:15:34;;;;;;;437.87;405.80;;;;;;;;;;5005658;28;20022;-59
2023/08/26 09:17:59;;;;;;;;;;;;;;;;;;4998974;28;20458;-59
2023/08/26 09:20:26;;;;;;;278.50;261.67;;;;;;;;;;5009137;28;19913;-59
2023/08/26 09:23:02;;;;;;;377.65;351.70;;;;;;;;;;4997768;28;20429;-59
2023/08/26 09:25:29;;;;;;;368.13;341.83;;;;;;;;;;4999219;28;20037;-60
2023/08/26 09:27:55;;;;;;;413.95;384.17;;;;;;;;;;5000199;28;20029;-60
2023/08/26 09:30:20;;;;;;;;;;;;;;;;;;5008458;28;20034;-60
2023/08/26 09:32:48;;;;;;;367.88;342.20;;;;;;;;;;5011513;28;19951;-59
2023/08/26 09:35:14;;;;;;;503.33;466.40;;;;;;;;;;5009955;28;20022;-61
2023/08/26 09:37:39;;;;;;;;;;;;;;;;;;5007992;28;20461;-61
2023/08/26 09:40:05;;;;;;;424.95;395.50;;;;;;;;;;5005348;28;19956;-60
2023/08/26 09:42:30;;;;;;;335.23;312.80;;;;;;;;;;5004941;28;20115;-59
2023/08/26 09:44:56;;;;;;;435.45;402.88;;;;;;;;;;4996529;28;20057;-60
2023/08/26 09:47:21;;;;;;;;;;;;;;;;;;5002138;28;20117;-60
2023/08/26 09:49:47;;;;;;;406.25;378.40;;;;;;;;;;5012822;28;19913;-61
2023/08/26 09:52:12;;;;;;;319.58;297.27;;;;;;;;;;5004120;28;20441;-59
2023/08/26 09:54:37;;;;;;;477.08;435.65;;;;;;;;;;5006864;28;20491;-60
2023/08/26 09:57:03;;;;;;;371.97;346.97;;;;;;;;;;5008728;28;20021;-61
2023/08/26 09:59:28;;;;;;;;;;;;;;;;;;5008943;28;20057;-60
2023/08/26 10:01:53;;;;;;;345.85;321.88;;;;;;;;;;5009743;28;19912;-60
2023/08/26 10:04:22;;;;;;;415.13;385.70;;;;;;;;;;5015181;28;20035;-60
2023/08/26 10:06:53;;;;;;;439.38;403.25;;;;;;;;;;5008582;28;20424;-61
2023/08/26 10:09:26;;;;;;;344.85;320.67;;;;;;;;;;5008967;28;20025;-61
2023/08/26 10:11:52;;;;;;;419.63;388.55;;;;;;;;;;5011157;28;20048;-58
2023/08/26 10:14:17;;;;;;;;;;;;;;;;;;5015312;28;20488;-61
2023/08/26 10:16:44;;;;;;;393.55;364.75;;;;;;;;;;5004988;28;19909;-60
2023/08/26 10:19:09;;;;;;;523.78;483.27;;;;;;;;;;5015833;28;20455;-60
2023/08/26 10:21:34;;;;;;;;;;;;;;;;;;5005775;28;20022;-62
2023/08/26 10:24:00;;;;;;;402.48;372.92;;;;;;;;;;5011301;28;19910;-59
2023/08/26 10:26:25;;;;;;;318.57;297.97;;;;;;;;;;5005084;28;20034;-60
2023/08/26 10:28:50;;;;;;;;;;;;;;;;;;5009845;28;20116;-59
2023/08/26 10:31:16;;;;;;;393.63;362.58;;;;;;;;;;5011296;28;19910;-60
2023/08/26 10:33:57;;;;;;;367.13;339.95;;;;;;;;;;5008973;28;20441;-59
2023/08/26 10:36:22;;;;;;;355.10;328.73;;;;;;;;;;5007602;28;20045;-59
2023/08/26 10:38:54;;;;;;;470.93;431.03;;;;;;;;;;5011951;28;20069;-59
2023/08/26 10:41:19;;;;;;;;;;;;;;;;;;5012935;28;20022;-59
2023/08/26 10:43:50;;;;;;;364.48;336.77;;;;;;;;;;5009970;28;19936;-59
2023/08/26 10:46:15;;;;;;;374.50;345.30;;;;;;;;;;5014032;28;20114;-60
2023/08/26 10:49:07;;;;;;;552.87;475.77;;;;;;;;;;5012229;28;20108;-59
2023/08/26 10:51:35;;;;;;;197.82;184.68;;;;;;;;;;5005387;28;20022;-59
2023/08/26 10:54:03;;;;;;;258.23;239.93;;;;;;;;;;5009717;28;20029;-58
2023/08/26 10:56:33;;;;;;;234.73;217.20;;;;;;;;;;5006941;28;20046;-60
2023/08/26 10:59:02;;;;;;;210.85;196.45;;;;;;;;;;5003249;28;20402;-60
2023/08/26 11:01:34;;;;;;;334.08;300.73;;;;;;;;;;5004522;28;20046;-58
2023/08/26 11:03:59;;;;;;;169.27;159.15;;;;;;;;;;5011273;28;20017;-58
2023/08/26 11:06:24;;;;;;;162.32;152.30;;;;;;;;;;5009624;28;20026;-58
2023/08/26 11:08:50;;;;;;;;;;;;;;;;;;5007160;28;20069;-59
2023/08/26 11:11:15;;;;;;;186.63;173.45;;;;;;;;;;4998371;28;20000;-59
2023/08/26 11:13:41;;;;;;;;;;;;;;;;;;5005964;28;20085;-59
2023/08/26 11:16:06;;;;;;;248.55;225.75;;;;;;;;;;5018724;28;19991;-60
2023/08/26 11:18:31;;;;;;;;;;;;;;;;;;5002269;28;20062;-59
2023/08/26 11:21:02;;;;;;;303.88;276.17;;;;;;;;;;5004068;28;19936;-59
2023/08/26 11:23:27;;;;;;;184.90;172.77;;;;;;;;;;5010374;28;20117;-59
2023/08/26 11:25:52;;;;;;;;;;;;;;;;;;5008763;28;20539;-59
2023/08/26 11:28:18;;;;;;;249.85;223.82;;;;;;;;;;5008538;28;19967;-58
2023/08/26 11:30:45;;;;;;;208.35;192.20;;;;;;;;;;5008843;28;20021;-58
2023/08/26 11:33:11;;;;;;;185.30;172.55;;;;;;;;;;5012556;28;20021;-59
2023/08/26 11:35:38;;;;;;;200.05;186.95;;;;;;;;;;5004516;28;20478;-59
2023/08/26 11:38:04;;;;;;;330.67;297.73;;;;;;;;;;5005404;28;20485;-59
2023/08/26 11:40:31;;;;;;;161.18;150.88;;;;;;;;;;5015019;28;20014;-60
2023/08/26 11:42:56;;;;;;;174.90;164.13;;;;;;;;;;5005729;28;20063;-60
2023/08/26 11:45:21;;;;;;;;;;;;;;;;;;5013340;28;20034;-59
2023/08/26 11:47:46;;;;;;;211.70;198.03;;;;;;;;;;5010057;28;20292;-60
2023/08/26 11:50:11;;;;;;;;;;;;;;;;;;5012167;28;20022;-60
2023/08/26 11:52:37;;;;;;;264.40;245.02;;;;;;;;;;5007532;28;19916;-61
2023/08/26 11:55:04;;;;;;;233.48;214.55;;;;;;;;;;5006071;28;20017;-60
2023/08/26 11:57:32;;;;;;;271.67;250.27;;;;;;;;;;5007428;28;20022;-59
2023/08/26 12:00:07;;;;;;;201.68;188.68;;;;;;;;;;5005057;28;20025;-59
2023/08/26 12:02:32;;;;;;;229.40;212.90;;;;;;;;;;5012411;28;20022;-58
2023/08/26 12:04:57;;;;;;;;;;;;;;;;;;5009100;28;20032;-59
2023/08/26 12:07:23;;;;;;;199.25;186.10;;;;;;;;;;5009892;28;19910;-59
2023/08/26 12:09:49;;;;;;;;;;;;;;;;;;5011559;28;20032;-57
2023/08/26 12:12:17;;;;;;;152.60;142.60;;;;;;;;;;5010212;28;19996;-61
2023/08/26 12:14:42;;;;;;;159.80;150.43;;;;;;;;;;5008031;28;20116;-60
2023/08/26 12:17:07;;;;;;;;;;;;;;;;;;5008926;28;20109;-59
2023/08/26 12:19:32;;;;;;;786.88;478.25;;;;;;;;;;5007208;28;19964;-59
2023/08/26 12:21:57;;;;;;;;;;;;;;;;;;5012212;28;20536;-59
2023/08/26 12:24:23;;;;;;;304.55;279.38;;;;;;;;;;5010325;28;19919;-59
2023/08/26 12:26:48;;;;;;;;;;;;;;;;;;5001469;28;20440;-59
2023/08/26 12:29:14;;;;;;;194.40;180.37;;;;;;;;;;5004976;28;20035;-60
2023/08/26 12:31:39;;;;;;;;;;;;;;;;;;5004780;28;20507;-60
2023/08/26 12:34:04;;;;;;;137.35;128.57;;;;;;;;;;5007572;28;19937;-59
2023/08/26 12:36:29;;;;;;;207.67;192.60;;;;;;;;;;5008865;28;20474;-60
2023/08/26 12:38:55;;;;;;;226.03;212.10;;;;;;;;;;5008614;28;20017;-59
2023/08/26 12:41:20;;;;;;;162.10;152.50;;;;;;;;;;5005380;28;20034;-60
2023/08/26 12:43:46;;;;;;;;;;;;;;;;;;5009261;28;20453;-59
2023/08/26 12:46:11;;;;;;;260.02;242.57;;;;;;;;;;5003217;28;20385;-59
2023/08/26 12:48:36;;;;;;;;;;;;;;;;;;4999114;28;20017;-60
2023/08/26 12:51:01;;;;;;;284.48;265.52;;;;;;;;;;5010857;28;20011;-60
2023/08/26 12:53:26;;;;;;;;;;;;;;;;;;5009562;28;20040;-60
2023/08/26 12:55:52;;;;;;;264.08;245.43;;;;;;;;;;5014334;28;19909;-60
2023/08/26 12:58:17;;;;;;;;;;;;;;;;;;5007446;28;20030;-59
2023/08/26 13:00:42;;;;;;;146.52;136.90;;;;;;;;;;5013524;28;19936;-59
2023/08/26 13:03:07;;;;;;;230.60;215.20;;;;;;;;;;5009500;28;20452;-59
2023/08/26 13:05:32;;;;;;;;;;;;;;;;;;5010597;28;20371;-59
2023/08/26 13:07:57;;;;;;;209.05;194.70;;;;;;;;;;5009796;28;19906;-60
2023/08/26 13:10:23;;;;;;;;;;;;;;;;;;5009800;28;20096;-59
2023/08/26 13:12:48;;;;;;;287.73;264.42;;;;;;;;;;5010244;28;19910;-59
2023/08/26 13:15:13;;;;;;;;;;;;;;;;;;5010393;28;20021;-59
2023/08/26 13:17:38;;;;;;;250.47;231.37;;;;;;;;;;5009669;28;19909;-60
2023/08/26 13:20:03;;;;;;;;;;;;;;;;;;5006069;28;20018;-60
2023/08/26 13:22:28;;;;;;;160.85;151.32;;;;;;;;;;5020040;28;20283;-60
2023/08/26 13:24:55;;;;;;;;;;;;;;;;;;5012834;28;20018;-61
2023/08/26 13:27:20;;;;;;;208.20;195.10;;;;;;;;;;5007784;28;19949;-59
2023/08/26 13:29:45;;;;;;;;;;;;;;;;;;5015587;28;20068;-59
2023/08/26 13:32:10;;;;;;;207.02;194.00;;;;;;;;;;5010071;28;19933;-59
2023/08/26 13:34:36;;;;;;;;;;;;;;;;;;5010913;28;20017;-59
2023/08/26 13:37:01;;;;;;;182.25;171.85;;;;;;;;;;5009038;28;19905;-60
2023/08/26 13:39:26;;;;;;;147.70;139.07;;;;;;;;;;5010289;28;20034;-59
2023/08/26 13:41:51;;;;;;;364.50;326.83;;;;;;;;;;5012000;28;20394;-59
2023/08/26 13:44:16;;;;;;;;;;;;;;;;;;5012571;28;20057;-59
2023/08/26 13:46:42;;;;;;;158.20;148.95;;;;;;;;;;5014099;28;19928;-59
2023/08/26 13:49:07;;;;;;;;;;;;;;;;;;5014912;28;20037;-59
2023/08/26 13:51:32;;;;;;;195.98;181.27;;;;;;;;;;5014549;28;20100;-59
2023/08/26 13:53:59;;;;;;;;;;;;;;;;;;5013762;28;20018;-59
2023/08/26 13:56:24;;;;;;;177.95;167.32;;;;;;;;;;5008093;28;19917;-60
2023/08/26 13:58:49;;;;;;;;;;;;;;;;;;5014051;28;20076;-61
2023/08/26 14:01:14;;;;;;;169.40;159.35;;;;;;;;;;5013726;28;19913;-60